Korex Spb No.2 — D8BI — position and weather

sailwx.info

Track history (hours):
 
Tides and Currents Weather Stations Pressure Air Temp Water Temp Dewpoint Dewpoint Depression Visibility Wind Speed Wind Dir Waves Ship Positions

Korex Spb No.2

Last reported at 2018-Feb-22 18:05 UTC. Time now 2018-Feb-22 20:28 UTC.
Position N 20°14' E 071°59'.

Length 152 m; draft 4.9 m.

Type: Cargo ship. MMSI: 441954000.

Date/timePositionNaut miles runAvg speedWind from/ knotsBaromVisibWave heightAir tempDewpointWater temp
2018-Feb-22 18:05N 20°14' E 071°59'0 0.0
2018-Feb-22 17:59N 20°14' E 071°59'0 0.0
2018-Feb-22 17:23N 20°14' E 071°59'0 0.0
2018-Feb-22 08:23N 20°14' E 071°59'0 0.0
2018-Feb-22 07:59N 20°14' E 071°59'0 0.0
2018-Feb-22 07:23N 20°14' E 071°59'0 0.0
2018-Feb-22 06:59N 20°14' E 071°59'0 0.0
2018-Feb-22 06:17N 20°14' E 071°59'0 0.0
2018-Feb-22 05:59N 20°14' E 071°59'0 0.0
2018-Feb-22 05:29N 20°14' E 071°59'0 0.0
2018-Feb-22 04:47N 20°14' E 071°59'0 0.0
2018-Feb-22 04:23N 20°14' E 071°59'0 0.0
2018-Feb-22 03:59N 20°14' E 071°59'0 0.0
2018-Feb-22 03:29N 20°14' E 071°59'0 0.0
2018-Feb-22 02:59N 20°14' E 071°59'0 0.0
2018-Feb-21 18:05N 20°14' E 071°59'0 0.0
2018-Feb-21 17:53N 20°14' E 071°59'0 0.0
2018-Feb-21 17:23N 20°14' E 071°59'0 0.0
2018-Feb-21 16:59N 20°14' E 071°59'0 0.0
2018-Feb-21 16:29N 20°14' E 071°59'0 0.0
2018-Feb-21 08:17N 20°14' E 071°59'0 0.0
2018-Feb-21 07:59N 20°14' E 071°59'0 0.0
2018-Feb-21 07:29N 20°14' E 071°59'0 0.0
2018-Feb-21 06:53N 20°14' E 071°59'0 0.0
2018-Feb-21 06:29N 20°14' E 071°59'0 0.0
2018-Feb-21 05:59N 20°14' E 071°59'0 0.0
2018-Feb-21 05:29N 20°14' E 071°59'0 0.0
2018-Feb-21 04:59N 20°14' E 071°59'0 0.0
2018-Feb-21 04:23N 20°14' E 071°59'0 0.0
2018-Feb-21 03:59N 20°14' E 071°59'0 0.0
2018-Feb-21 03:29N 20°14' E 071°59'0 0.0
2018-Feb-21 02:53N 20°14' E 071°59'0 0.0
2018-Feb-21 02:29N 20°14' E 071°59'0 0.0
2018-Feb-21 01:59N 20°14' E 071°59'0 0.0
2018-Feb-21 01:23N 20°14' E 071°59'0 0.0
2018-Feb-21 00:47N 20°14' E 071°59'0 0.0
2018-Feb-20 19:56N 20°14' E 071°59'2 3.6
2018-Feb-20 19:30N 20°14' E 071°58'1 0.1
2018-Feb-20 02:22N 20°14' E 071°57'0 0.7
2018-Feb-20 01:42N 20°13' E 071°57'0 0.2
2018-Feb-20 01:28N 20°13' E 071°57'0 0.6
2018-Feb-20 01:00N 20°13' E 071°57'2 3.4
2018-Feb-20 00:29N 20°13' E 071°59'0 0.0
2018-Feb-19 07:36N 20°13' E 071°59'0 0.0
2018-Feb-19 07:24N 20°13' E 071°59'0 0.0
2018-Feb-19 07:00N 20°13' E 071°59'0 0.1
2018-Feb-19 06:30N 20°13' E 071°59'0 0.0
2018-Feb-19 05:54N 20°13' E 071°59'1 3.5
2018-Feb-19 05:30N 20°13' E 071°58'4 7.6
2018-Feb-19 05:00N 20°14' E 071°54'1 3.0
2018-Feb-19 04:30N 20°13' E 071°52'1 2.7
2018-Feb-19 04:00N 20°12' E 071°51'1 1.3
2018-Feb-19 03:30N 20°12' E 071°51'3 2.4
2018-Feb-19 02:26N 20°14' E 071°53'6 1.2
2018-Feb-18 21:13N 20°16' E 071°59'1 4.4
2018-Feb-18 20:56N 20°15' E 072°00'4 8.3
2018-Feb-18 20:30N 20°17' E 072°04'2 4.3
2018-Feb-18 20:00N 20°17' E 072°06'1 2.6
2018-Feb-18 19:30N 20°16' E 072°05'1 2.3
2018-Feb-18 19:00N 20°16' E 072°04'1 2.0
2018-Feb-18 18:30N 20°15' E 072°03'1 1.6
2018-Feb-18 18:00N 20°15' E 072°02'1 1.4
2018-Feb-18 17:30N 20°15' E 072°01'1 1.0
2018-Feb-18 16:57N 20°15' E 072°01'0 1.0
2018-Feb-18 16:30N 20°15' E 072°00'2 4.8
2018-Feb-18 16:00N 20°12' E 071°60'10 1.2
2018-Feb-18 07:57N 20°04' E 071°54'0 0.0
2018-Feb-18 07:27N 20°04' E 071°54'0 0.0
2018-Feb-18 06:57N 20°04' E 071°54'0 0.0
2018-Feb-18 06:27N 20°04' E 071°54'0 0.1
2018-Feb-18 05:57N 20°04' E 071°54'0 0.0
2018-Feb-18 05:27N 20°04' E 071°54'0 0.0
2018-Feb-18 04:57N 20°04' E 071°54'0 0.0
2018-Feb-18 04:27N 20°04' E 071°54'0 0.0
2018-Feb-18 03:57N 20°04' E 071°54'0 0.0
2018-Feb-18 03:21N 20°04' E 071°54'0 0.0
2018-Feb-18 02:57N 20°04' E 071°54'0 0.0
2018-Feb-18 02:27N 20°04' E 071°54'0 0.0
2018-Feb-18 01:57N 20°04' E 071°54'0 0.0
2018-Feb-18 01:27N 20°04' E 071°54'0 0.0
2018-Feb-18 00:57N 20°04' E 071°54'0 0.0
2018-Feb-18 00:21N 20°04' E 071°54'0 0.0
2018-Feb-17 23:39N 20°04' E 071°54'0 0.0
2018-Feb-17 23:26N 20°04' E 071°54'0 0.0
2018-Feb-17 22:56N 20°04' E 071°54'0 0.0
2018-Feb-17 22:15N 20°04' E 071°54'0 0.0
2018-Feb-17 17:51N 20°04' E 071°54'0 0.0
2018-Feb-17 08:39N 20°04' E 071°54'0 0.0
2018-Feb-17 06:27N 20°04' E 071°54'0 0.0
2018-Feb-17 05:57N 20°04' E 071°54'0 0.0
2018-Feb-17 05:21N 20°04' E 071°54'0 0.0
2018-Feb-17 04:51N 20°04' E 071°54'0 0.0
2018-Feb-17 04:27N 20°04' E 071°54'0 0.0
2018-Feb-17 03:57N 20°04' E 071°54'0 0.0
2018-Feb-17 03:03N 20°04' E 071°54'0 0.0
2018-Feb-17 02:45N 20°04' E 071°54'0 0.0
2018-Feb-17 02:21N 20°04' E 071°54'0 0.0
2018-Feb-17 01:51N 20°04' E 071°54'0 0.0
2018-Feb-17 01:27N 20°04' E 071°54'0 0.0
2018-Feb-17 00:57N 20°04' E 071°54'0 0.0
2018-Feb-17 00:27N 20°04' E 071°54'0 0.0
2018-Feb-16 23:51N 20°04' E 071°54'0 0.0
2018-Feb-16 23:27N 20°04' E 071°54'0 0.0
2018-Feb-16 22:57N 20°04' E 071°54'0 0.0
2018-Feb-16 22:21N 20°04' E 071°54'0 0.0
2018-Feb-16 21:57N 20°04' E 071°54'0 0.0
2018-Feb-16 21:21N 20°04' E 071°54'0 0.1
2018-Feb-16 21:00N 20°04' E 071°54'3 6.2
2018-Feb-16 20:30N 20°04' E 071°58'510.1
2018-Feb-16 20:00N 20°01' E 072°02'5 9.9
2018-Feb-16 19:30N 19°59' E 072°07'5 9.7
2018-Feb-16 19:00N 19°58' E 072°12'510.0
2018-Feb-16 18:29N 19°57' E 072°17'55 3.2
2018-Feb-16 01:02N 19°04' E 072°36'0 0.1
2018-Feb-16 00:57N 19°04' E 072°36'0 0.0
2018-Feb-15 20:02N 19°04' E 072°36'0 0.1
2018-Feb-15 19:56N 19°04' E 072°36'0 0.0
2018-Feb-15 19:14N 19°04' E 072°36'0 0.0
2018-Feb-15 18:50N 19°04' E 072°36'0 0.0
2018-Feb-13 16:08N 19°04' E 072°36'0 0.0
2018-Feb-13 15:56N 19°04' E 072°36'0 0.0
2018-Feb-13 15:26N 19°04' E 072°36'0 0.0
2018-Feb-13 13:38N 19°04' E 072°36'0 0.0
2018-Feb-13 13:26N 19°04' E 072°36'  
Track history (hours):
 
Tides and Currents Weather Stations Pressure Air Temp Water Temp Dewpoint Dewpoint Depression Visibility Wind Speed Wind Dir Waves Ship Positions

Korex Spb No.2

Last reported at 2018-Feb-22 18:05 UTC. Time now 2018-Feb-22 20:28 UTC.
Position N 20°14' E 071°59'.

Length 152 m; draft 4.9 m.

Type: Cargo ship. MMSI: 441954000.

Date/timePositionNaut miles runAvg speedWind from/ knotsBaromVisibWave heightAir tempDewpointWater temp
2018-Feb-22 18:05N 20°14' E 071°59'0 0.0
2018-Feb-22 17:59N 20°14' E 071°59'0 0.0
2018-Feb-22 17:23N 20°14' E 071°59'0 0.0
2018-Feb-22 08:23N 20°14' E 071°59'0 0.0
2018-Feb-22 07:59N 20°14' E 071°59'0 0.0
2018-Feb-22 07:23N 20°14' E 071°59'0 0.0
2018-Feb-22 06:59N 20°14' E 071°59'0 0.0
2018-Feb-22 06:17N 20°14' E 071°59'0 0.0
2018-Feb-22 05:59N 20°14' E 071°59'0 0.0
2018-Feb-22 05:29N 20°14' E 071°59'0 0.0
2018-Feb-22 04:47N 20°14' E 071°59'0 0.0
2018-Feb-22 04:23N 20°14' E 071°59'0 0.0
2018-Feb-22 03:59N 20°14' E 071°59'0 0.0
2018-Feb-22 03:29N 20°14' E 071°59'0 0.0
2018-Feb-22 02:59N 20°14' E 071°59'0 0.0
2018-Feb-21 18:05N 20°14' E 071°59'0 0.0
2018-Feb-21 17:53N 20°14' E 071°59'0 0.0
2018-Feb-21 17:23N 20°14' E 071°59'0 0.0
2018-Feb-21 16:59N 20°14' E 071°59'0 0.0
2018-Feb-21 16:29N 20°14' E 071°59'0 0.0
2018-Feb-21 08:17N 20°14' E 071°59'0 0.0
2018-Feb-21 07:59N 20°14' E 071°59'0 0.0
2018-Feb-21 07:29N 20°14' E 071°59'0 0.0
2018-Feb-21 06:53N 20°14' E 071°59'0 0.0
2018-Feb-21 06:29N 20°14' E 071°59'0 0.0
2018-Feb-21 05:59N 20°14' E 071°59'0 0.0
2018-Feb-21 05:29N 20°14' E 071°59'0 0.0
2018-Feb-21 04:59N 20°14' E 071°59'0 0.0
2018-Feb-21 04:23N 20°14' E 071°59'0 0.0
2018-Feb-21 03:59N 20°14' E 071°59'0 0.0
2018-Feb-21 03:29N 20°14' E 071°59'0 0.0
2018-Feb-21 02:53N 20°14' E 071°59'0 0.0
2018-Feb-21 02:29N 20°14' E 071°59'0 0.0
2018-Feb-21 01:59N 20°14' E 071°59'0 0.0
2018-Feb-21 01:23N 20°14' E 071°59'0 0.0
2018-Feb-21 00:47N 20°14' E 071°59'0 0.0
2018-Feb-20 19:56N 20°14' E 071°59'2 3.6
2018-Feb-20 19:30N 20°14' E 071°58'1 0.1
2018-Feb-20 02:22N 20°14' E 071°57'0 0.7
2018-Feb-20 01:42N 20°13' E 071°57'0 0.2
2018-Feb-20 01:28N 20°13' E 071°57'0 0.6
2018-Feb-20 01:00N 20°13' E 071°57'2 3.4
2018-Feb-20 00:29N 20°13' E 071°59'0 0.0
2018-Feb-19 07:36N 20°13' E 071°59'0 0.0
2018-Feb-19 07:24N 20°13' E 071°59'0 0.0
2018-Feb-19 07:00N 20°13' E 071°59'0 0.1
2018-Feb-19 06:30N 20°13' E 071°59'0 0.0
2018-Feb-19 05:54N 20°13' E 071°59'1 3.5
2018-Feb-19 05:30N 20°13' E 071°58'4 7.6
2018-Feb-19 05:00N 20°14' E 071°54'1 3.0
2018-Feb-19 04:30N 20°13' E 071°52'1 2.7
2018-Feb-19 04:00N 20°12' E 071°51'1 1.3
2018-Feb-19 03:30N 20°12' E 071°51'3 2.4
2018-Feb-19 02:26N 20°14' E 071°53'6 1.2
2018-Feb-18 21:13N 20°16' E 071°59'1 4.4
2018-Feb-18 20:56N 20°15' E 072°00'4 8.3
2018-Feb-18 20:30N 20°17' E 072°04'2 4.3
2018-Feb-18 20:00N 20°17' E 072°06'1 2.6
2018-Feb-18 19:30N 20°16' E 072°05'1 2.3
2018-Feb-18 19:00N 20°16' E 072°04'1 2.0
2018-Feb-18 18:30N 20°15' E 072°03'1 1.6
2018-Feb-18 18:00N 20°15' E 072°02'1 1.4
2018-Feb-18 17:30N 20°15' E 072°01'1 1.0
2018-Feb-18 16:57N 20°15' E 072°01'0 1.0
2018-Feb-18 16:30N 20°15' E 072°00'2 4.8
2018-Feb-18 16:00N 20°12' E 071°60'10 1.2
2018-Feb-18 07:57N 20°04' E 071°54'0 0.0
2018-Feb-18 07:27N 20°04' E 071°54'0 0.0
2018-Feb-18 06:57N 20°04' E 071°54'0 0.0
2018-Feb-18 06:27N 20°04' E 071°54'0 0.1
2018-Feb-18 05:57N 20°04' E 071°54'0 0.0
2018-Feb-18 05:27N 20°04' E 071°54'0 0.0
2018-Feb-18 04:57N 20°04' E 071°54'0 0.0
2018-Feb-18 04:27N 20°04' E 071°54'0 0.0
2018-Feb-18 03:57N 20°04' E 071°54'0 0.0
2018-Feb-18 03:21N 20°04' E 071°54'0 0.0
2018-Feb-18 02:57N 20°04' E 071°54'0 0.0
2018-Feb-18 02:27N 20°04' E 071°54'0 0.0
2018-Feb-18 01:57N 20°04' E 071°54'0 0.0
2018-Feb-18 01:27N 20°04' E 071°54'0 0.0
2018-Feb-18 00:57N 20°04' E 071°54'0 0.0
2018-Feb-18 00:21N 20°04' E 071°54'0 0.0
2018-Feb-17 23:39N 20°04' E 071°54'0 0.0
2018-Feb-17 23:26N 20°04' E 071°54'0 0.0
2018-Feb-17 22:56N 20°04' E 071°54'0 0.0
2018-Feb-17 22:15N 20°04' E 071°54'0 0.0
2018-Feb-17 17:51N 20°04' E 071°54'0 0.0
2018-Feb-17 08:39N 20°04' E 071°54'0 0.0
2018-Feb-17 06:27N 20°04' E 071°54'0 0.0
2018-Feb-17 05:57N 20°04' E 071°54'0 0.0
2018-Feb-17 05:21N 20°04' E 071°54'0 0.0
2018-Feb-17 04:51N 20°04' E 071°54'0 0.0
2018-Feb-17 04:27N 20°04' E 071°54'0 0.0
2018-Feb-17 03:57N 20°04' E 071°54'0 0.0
2018-Feb-17 03:03N 20°04' E 071°54'0 0.0
2018-Feb-17 02:45N 20°04' E 071°54'0 0.0
2018-Feb-17 02:21N 20°04' E 071°54'0 0.0
2018-Feb-17 01:51N 20°04' E 071°54'0 0.0
2018-Feb-17 01:27N 20°04' E 071°54'0 0.0
2018-Feb-17 00:57N 20°04' E 071°54'0 0.0
2018-Feb-17 00:27N 20°04' E 071°54'0 0.0
2018-Feb-16 23:51N 20°04' E 071°54'0 0.0
2018-Feb-16 23:27N 20°04' E 071°54'0 0.0
2018-Feb-16 22:57N 20°04' E 071°54'0 0.0
2018-Feb-16 22:21N 20°04' E 071°54'0 0.0
2018-Feb-16 21:57N 20°04' E 071°54'0 0.0
2018-Feb-16 21:21N 20°04' E 071°54'0 0.1
2018-Feb-16 21:00N 20°04' E 071°54'3 6.2
2018-Feb-16 20:30N 20°04' E 071°58'510.1
2018-Feb-16 20:00N 20°01' E 072°02'5 9.9
2018-Feb-16 19:30N 19°59' E 072°07'5 9.7
2018-Feb-16 19:00N 19°58' E 072°12'510.0
2018-Feb-16 18:29N 19°57' E 072°17'55 3.2
2018-Feb-16 01:02N 19°04' E 072°36'0 0.1
2018-Feb-16 00:57N 19°04' E 072°36'0 0.0
2018-Feb-15 20:02N 19°04' E 072°36'0 0.1
2018-Feb-15 19:56N 19°04' E 072°36'0 0.0
2018-Feb-15 19:14N 19°04' E 072°36'0 0.0
2018-Feb-15 18:50N 19°04' E 072°36'0 0.0
2018-Feb-13 16:08N 19°04' E 072°36'0 0.0
2018-Feb-13 15:56N 19°04' E 072°36'0 0.0
2018-Feb-13 15:26N 19°04' E 072°36'0 0.0
2018-Feb-13 13:38N 19°04' E 072°36'0 0.0
2018-Feb-13 13:26N 19°04' E 072°36'  

Dump ship's entire track history